Time;durP1;ratioP1;P1;durP2;ratioP2;P2;SDS_P1;SDS_P2;PMS_P1;PMS_P2;Temp;Humidity;BMP_temperature;BMP_pressure;BME280_temperature;BME280_humidity;BME280_pressure;Samples;Min_cycle;Max_cycle;Signal;HPM_P1;HPM_P2
2022/02/08 00:02:13;;;;;;;40.73;24.18;;;;;;;4.91;79.83;99715.44;1665883;85;21469;-70
2022/02/08 00:04:39;;;;;;;34.10;22.95;;;;;;;4.88;79.94;99712.54;1666153;85;20876;-70
2022/02/08 00:07:08;;;;;;;44.58;24.25;;;;;;;4.84;79.96;99716.20;1666055;86;21144;-69
2022/02/08 00:09:35;;;;;;;43.98;25.97;;;;;;;4.82;80.09;99711.55;1666517;85;20943;-69
2022/02/08 00:12:02;;;;;;;43.40;25.23;;;;;;;4.81;80.25;99715.55;1666168;86;20942;-69
2022/02/08 00:14:29;;;;;;;41.15;24.90;;;;;;;4.79;80.26;99703.92;1666278;85;20986;-70
2022/02/08 00:16:57;;;;;;;45.80;27.20;;;;;;;4.80;80.37;99708.19;1666372;86;20911;-68
2022/02/08 00:19:24;;;;;;;45.83;26.93;;;;;;;4.79;80.41;99701.33;1666141;86;21119;-69
2022/02/08 00:21:50;;;;;;;44.38;26.25;;;;;;;4.75;80.47;99704.99;1666278;86;20939;-69
2022/02/08 00:25:55;;;;;;;40.50;25.45;;;;;;;4.78;80.71;99690.11;1798457;79;22145;-69
2022/02/08 00:28:22;;;;;;;48.63;26.20;;;;;;;4.74;80.71;99691.64;1758533;81;20904;-70
2022/02/08 00:30:49;;;;;;;45.98;27.20;;;;;;;4.75;80.82;99694.61;1758438;80;21126;-70
2022/02/08 00:33:16;;;;;;;38.83;24.72;;;;;;;4.79;81.12;99689.64;1758218;80;20872;-70
2022/02/08 00:35:42;;;;;;;39.80;25.12;;;;;;;4.86;81.19;99692.77;1758395;80;21343;-69
2022/02/08 00:38:09;;;;;;;42.38;24.52;;;;;;;4.95;81.17;99698.78;1758295;80;20936;-69
2022/02/08 00:40:36;;;;;;;39.65;25.70;;;;;;;4.99;80.86;99697.70;1758608;81;21334;-70
2022/02/08 00:43:05;;;;;;;41.90;25.68;;;;;;;5.04;81.02;99701.36;1758240;81;21051;-68
2022/02/08 00:48:14;;;;;;;46.68;27.45;;;;;;;5.08;80.59;99706.78;1758139;81;21390;-70
2022/02/08 00:50:31;;;;;;;52.83;27.75;;;;;;;5.05;80.31;99702.59;1755748;80;20979;-70
2022/02/08 00:52:58;;;;;;;47.30;27.70;;;;;;;5.02;80.32;99711.83;1758230;81;20984;-68
2022/02/08 00:55:24;;;;;;;44.15;26.77;;;;;;;5.00;80.14;99709.77;1758228;81;21827;-69
2022/02/08 00:57:51;;;;;;;44.98;28.17;;;;;;;4.95;80.11;99704.80;1758401;81;20908;-68
2022/02/08 01:00:20;;;;;;;39.80;26.05;;;;;;;4.92;80.15;99710.17;1758139;80;20889;-68
2022/02/08 01:02:47;;;;;;;43.33;26.62;;;;;;;4.89;80.31;99708.18;1758035;80;20908;-70
2022/02/08 01:05:15;;;;;;;47.83;26.93;;;;;;;4.91;80.50;99716.73;1758539;80;20860;-67
2022/02/08 01:07:44;;;;;;;41.73;25.40;;;;;;;4.94;80.56;99716.59;1758579;81;21792;-69
2022/02/08 01:10:11;;;;;;;52.88;27.17;;;;;;;4.96;80.57;99719.96;1758097;81;20948;-69
2022/02/08 01:12:40;;;;;;;51.37;28.23;;;;;;;4.99;80.54;99714.13;1758245;81;20991;-70
2022/02/08 01:15:08;;;;;;;56.02;29.45;;;;;;;5.01;80.49;99719.72;1758057;80;20940;-73
2022/02/08 01:17:36;;;;;;;58.17;28.77;;;;;;;5.02;80.47;99717.02;1758644;80;21347;-71
2022/02/08 01:20:13;;;;;;;52.95;28.35;;;;;;;5.03;80.36;99713.52;1758749;81;21073;-69
2022/02/08 01:22:37;;;;;;;45.12;26.45;;;;;;;5.05;80.33;99718.18;1756795;80;20860;-70
2022/02/08 01:25:05;;;;;;;49.40;26.73;;;;;;;5.05;80.28;99714.75;1751075;81;20901;-69
2022/02/08 01:27:37;;;;;;;47.55;27.42;;;;;;;5.03;80.26;99712.69;1745139;81;20983;-70
2022/02/08 01:30:02;;;;;;;43.23;25.43;;;;;;;4.99;80.26;99711.53;1745272;81;21086;-69
2022/02/08 01:35:28;;;;;;;52.45;26.75;;;;;;;4.96;80.63;99710.87;1744967;82;20916;-70
2022/02/08 01:37:49;;;;;;;44.27;26.77;;;;;;;4.97;80.78;99707.34;1743431;81;20897;-70
2022/02/08 01:48:27;;;;;;;53.92;28.57;;;;;;;4.94;80.77;99701.84;1744458;82;20896;-69
2022/02/08 01:50:43;;;;;;;54.48;28.12;;;;;;;4.92;80.75;99702.38;1743660;81;20905;-70
2022/02/08 01:53:10;;;;;;;55.65;30.43;;;;;;;4.89;80.80;99696.48;1744534;82;20912;-69
2022/02/08 01:55:39;;;;;;;53.45;29.82;;;;;;;4.83;80.83;99706.75;1744781;82;20945;-70
2022/02/08 01:58:08;;;;;;;60.28;31.70;;;;;;;4.75;81.04;99703.69;1744537;80;20984;-69
2022/02/08 02:00:35;;;;;;;59.77;30.77;;;;;;;4.69;81.31;99701.40;1744721;82;20885;-70
2022/02/08 02:03:02;;;;;;;58.28;32.67;;;;;;;4.63;81.56;99697.84;1744595;81;20968;-69
2022/02/08 02:05:31;;;;;;;54.03;28.42;;;;;;;4.60;81.99;99699.27;1744296;81;21462;-69
2022/02/08 02:07:59;;;;;;;55.38;29.65;;;;;;;4.59;82.10;99698.91;1744732;82;21011;-69
2022/02/08 02:10:26;;;;;;;52.60;29.55;;;;;;;4.57;82.30;99703.70;1734094;82;21367;-68
2022/02/08 02:12:59;;;;;;;65.08;30.92;;;;;;;4.56;82.39;99715.48;1744522;82;22380;-68
2022/02/08 02:15:29;;;;;;;50.52;28.83;;;;;;;4.56;82.57;99713.72;1744383;81;20968;-69
2022/02/08 02:17:57;;;;;;;60.23;30.17;;;;;;;4.57;82.65;99708.06;1744435;82;20908;-69
2022/02/08 02:20:24;;;;;;;56.50;30.17;;;;;;;4.59;82.68;99720.51;1744680;81;20896;-70
2022/02/08 02:22:52;;;;;;;60.25;30.90;;;;;;;4.60;82.78;99721.34;1744498;80;21092;-70
2022/02/08 02:25:30;;;;;;;58.50;30.23;;;;;;;4.61;82.92;99725.17;1750989;80;21529;-69
2022/02/08 02:28:02;;;;;;;52.70;29.35;;;;;;;4.64;82.93;99718.98;1757854;81;21007;-69
2022/02/08 02:30:31;;;;;;;58.00;29.27;;;;;;;4.63;82.91;99720.74;1757922;80;21414;-70
2022/02/08 02:33:00;;;;;;;59.73;31.10;;;;;;;4.63;82.89;99717.31;1757913;80;20931;-70
2022/02/08 02:35:28;;;;;;;57.75;30.27;;;;;;;4.64;82.97;99715.91;1758144;81;21129;-68
2022/02/08 02:37:57;;;;;;;56.70;29.85;;;;;;;4.64;82.90;99718.98;1757961;81;20927;-69
2022/02/08 02:40:26;;;;;;;47.00;28.67;;;;;;;4.64;82.93;99726.77;1758352;80;21323;-70
2022/02/08 02:42:54;;;;;;;57.38;28.45;;;;;;;4.61;83.07;99723.88;1757820;81;20940;-70
2022/02/08 02:45:21;;;;;;;51.83;28.42;;;;;;;4.60;83.08;99723.94;1758290;80;21577;-70
2022/02/08 02:47:51;;;;;;;54.55;28.95;;;;;;;4.59;83.15;99720.97;1757770;81;21429;-70
2022/02/08 02:50:20;;;;;;;51.20;27.02;;;;;;;4.60;83.32;99722.64;1740985;81;21500;-68
2022/02/08 02:52:47;;;;;;;49.85;27.73;;;;;;;4.61;83.31;99720.44;1757936;80;20928;-68
2022/02/08 02:55:15;;;;;;;49.98;27.35;;;;;;;4.64;83.45;99724.17;1758101;80;20857;-69
2022/02/08 02:57:46;;;;;;;43.90;25.25;;;;;;;4.63;83.41;99715.55;1757728;80;21026;-68
2022/02/08 03:00:27;;;;;;;46.25;26.93;;;;;;;4.62;83.47;99716.45;1758414;81;21038;-69
2022/02/08 03:02:52;;;;;;;50.03;25.80;;;;;;;4.63;83.60;99723.80;1756456;81;20888;-69
2022/02/08 03:18:50;;;;;;;42.13;23.35;;;;;;;4.61;83.76;99739.91;1757688;81;20971;-70
2022/02/08 03:21:17;;;;;;;41.92;24.02;;;;;;;4.59;83.68;99735.25;1758146;80;20903;-69
2022/02/08 03:23:44;;;;;;;36.10;24.70;;;;;;;4.55;83.73;99737.98;1757996;81;20904;-70
2022/02/08 03:26:12;;;;;;;34.15;21.85;;;;;;;4.55;84.06;99735.38;1757864;81;21676;-70
2022/02/08 03:28:40;;;;;;;40.67;23.75;;;;;;;4.58;84.16;99735.72;1757431;80;20939;-71
2022/02/08 03:31:09;;;;;;;36.95;22.25;;;;;;;4.63;84.21;99734.19;1757630;81;20963;-70
2022/02/08 03:33:37;;;;;;;39.42;22.90;;;;;;;4.70;84.49;99735.56;1757775;81;20912;-69
2022/02/08 03:36:06;;;;;;;38.13;23.40;;;;;;;4.75;84.30;99732.27;1757970;80;20987;-70
2022/02/08 03:38:39;;;;;;;32.45;20.95;;;;;;;4.82;84.28;99733.63;1757750;81;21159;-70
2022/02/08 03:41:07;;;;;;;30.95;20.62;;;;;;;4.89;84.02;99735.45;1758114;81;20845;-69
2022/02/08 03:43:37;;;;;;;35.33;21.68;;;;;;;4.88;83.73;99737.22;1757986;81;20924;-70
2022/02/08 03:46:07;;;;;;;31.55;20.57;;;;;;;4.85;83.54;99747.78;1757782;80;21101;-70
2022/02/08 03:48:35;;;;;;;32.50;20.90;;;;;;;4.78;83.44;99738.16;1757753;80;20869;-72
2022/02/08 03:51:14;;;;;;;35.68;21.60;;;;;;;4.73;83.53;99737.52;1757849;81;21189;-71
2022/02/08 03:53:51;;;;;;;31.27;20.12;;;;;;;4.70;83.48;99742.88;1757225;81;20951;-70
2022/02/08 03:56:21;;;;;;;27.95;17.77;;;;;;;4.67;83.53;99744.78;1757216;81;20924;-70
2022/02/08 03:58:48;;;;;;;30.30;19.30;;;;;;;4.67;83.58;99748.24;1758075;81;21017;-69
2022/02/08 04:04:29;;;;;;;19.82;15.15;;;;;;;4.65;83.65;99745.34;1758281;81;22074;-71
2022/02/08 04:06:47;;;;;;;21.07;14.73;;;;;;;4.65;83.79;99749.24;1756594;81;20952;-72
2022/02/08 04:09:18;;;;;;;19.82;14.28;;;;;;;4.65;83.82;99754.44;1758021;80;21375;-69
2022/02/08 04:12:06;;;;;;;16.82;13.75;;;;;;;4.65;83.94;99752.67;1758219;80;20897;-70
2022/02/08 04:14:43;;;;;;;21.75;13.75;;;;;;;4.69;83.99;99761.12;1757629;81;21334;-71
2022/02/08 04:17:16;;;;;;;;;;;;;;;4.71;83.75;99757.56;1759724;81;21104;-69
2022/02/08 04:19:47;;;;;;;16.73;12.80;;;;;;;4.71;83.74;99756.70;1756418;80;20139;-69
2022/02/08 04:33:11;;;;;;;16.37;12.23;;;;;;;4.81;83.52;99770.09;1757903;81;20081;-70
2022/02/08 04:38:35;;;;;;;;;;;;;;;4.86;83.27;99767.63;1760362;81;20900;-69
2022/02/08 04:41:07;;;;;;;15.85;11.25;;;;;;;4.89;83.16;99770.09;1756446;80;20101;-69
2022/02/08 04:46:08;;;;;;;15.63;11.65;;;;;;;4.88;82.77;99764.97;1757908;80;21439;-69
2022/02/08 04:48:48;;;;;;;17.57;12.73;;;;;;;4.83;82.75;99763.06;1756841;81;21014;-71
2022/02/08 04:51:17;;;;;;;15.72;12.33;;;;;;;4.77;82.82;99762.89;1756186;80;21528;-70
2022/02/08 04:53:47;;;;;;;16.85;12.98;;;;;;;4.74;82.93;99765.66;1757297;80;20991;-69
2022/02/08 04:56:21;;;;;;;19.05;13.85;;;;;;;4.72;83.02;99767.48;1757219;81;21114;-69
2022/02/08 04:58:51;;;;;;;18.52;13.58;;;;;;;4.71;82.98;99762.76;1756692;81;20988;-70
2022/02/08 05:01:20;;;;;;;20.32;14.25;;;;;;;4.71;82.86;99769.69;1756916;80;20983;-69
2022/02/08 05:34:24;;;;;;;24.15;17.40;;;;;;;4.66;83.16;99806.27;1757861;81;20979;-70
2022/02/08 05:44:33;;;;;;;22.00;15.70;;;;;;;4.80;84.27;99826.83;1741054;81;21038;-81
2022/02/08 05:47:00;;;;;;;31.25;21.30;;;;;;;4.90;84.24;99830.20;1758047;80;20897;-83
2022/02/08 05:49:50;;;;;;;32.33;20.77;;;;;;;5.01;84.12;99838.78;1758271;80;21127;-80
2022/02/08 05:54:43;;;;;;;24.35;17.02;;;;;;;5.14;83.57;99841.15;1758270;80;20093;-77
2022/02/08 05:57:10;;;;;;;23.12;16.65;;;;;;;5.18;83.28;99840.55;1758241;81;20897;-75
2022/02/08 05:59:37;;;;;;;23.45;16.48;;;;;;;5.15;83.06;99842.81;1758233;81;21032;-77
2022/02/08 06:02:04;;;;;;;23.55;16.10;;;;;;;5.13;82.87;99842.05;1758875;81;21111;-75
2022/02/08 06:04:36;;;;;;;25.45;17.45;;;;;;;5.11;82.79;99846.95;1756977;81;20983;-76
2022/02/08 06:07:01;;;;;;;22.55;17.15;;;;;;;5.09;82.65;99844.44;1757923;81;20897;-77
2022/02/08 06:09:28;;;;;;;21.27;16.45;;;;;;;5.10;82.51;99847.87;1758188;81;21092;-76
2022/02/08 06:11:55;;;;;;;23.57;16.97;;;;;;;5.07;82.44;99848.87;1758355;81;20880;-76
2022/02/08 06:14:25;;;;;;;22.05;17.45;;;;;;;5.07;82.46;99852.77;1758057;81;21134;-77
2022/02/08 06:16:53;;;;;;;23.25;17.25;;;;;;;5.09;82.48;99857.44;1741360;80;20948;-76
2022/02/08 06:19:20;;;;;;;22.10;14.98;;;;;;;5.10;82.27;99868.20;1757912;80;20929;-76
2022/02/08 06:21:46;;;;;;;23.05;16.15;;;;;;;5.08;81.99;99867.90;1758186;81;20885;-76
2022/02/08 06:24:13;;;;;;;25.08;17.50;;;;;;;5.05;82.04;99872.80;1758036;81;20892;-75
2022/02/08 06:26:41;;;;;;;20.20;16.30;;;;;;;5.02;81.89;99876.82;1750927;81;21136;-76
2022/02/08 06:29:20;;;;;;;20.60;15.35;;;;;;;4.97;81.88;99880.11;1744102;82;20980;-78
2022/02/08 06:31:44;;;;;;;20.27;15.20;;;;;;;4.92;81.89;99886.83;1744411;81;20924;-75
2022/02/08 06:34:17;;;;;;;19.07;14.70;;;;;;;4.87;82.27;99884.92;1744483;82;20929;-68
2022/02/08 06:36:42;;;;;;;22.52;15.40;;;;;;;4.89;82.58;99888.72;1744686;81;20949;-75
2022/02/08 06:39:09;;;;;;;22.37;15.75;;;;;;;4.94;82.72;99888.06;1744696;82;21164;-76
2022/02/08 06:41:36;;;;;;;24.65;16.95;;;;;;;4.99;82.72;99891.27;1744884;81;20877;-72
2022/02/08 06:44:04;;;;;;;24.18;17.42;;;;;;;5.04;82.56;99893.65;1744766;82;20949;-75
2022/02/08 06:46:31;;;;;;;21.68;16.85;;;;;;;5.04;82.35;99899.68;1744536;82;20992;-73
2022/02/08 06:48:58;;;;;;;21.33;16.75;;;;;;;5.04;82.47;99895.78;1744720;82;20850;-75
2022/02/08 06:51:25;;;;;;;19.65;15.40;;;;;;;5.07;82.65;99902.14;1744607;81;21155;-74
2022/02/08 06:53:52;;;;;;;19.10;15.13;;;;;;;5.11;82.73;99893.29;1744639;82;20893;-73
2022/02/08 06:56:18;;;;;;;16.67;12.90;;;;;;;5.18;82.76;99898.56;1744771;82;20952;-73
2022/02/08 06:58:58;;;;;;;13.85;12.03;;;;;;;5.25;82.82;99900.39;1744471;82;20873;-73
2022/02/08 07:01:25;;;;;;;14.87;12.53;;;;;;;5.33;82.77;99909.10;1744479;81;20917;-74
2022/02/08 07:03:52;;;;;;;20.62;13.90;;;;;;;5.39;82.69;99903.60;1744297;81;21118;-73
2022/02/08 07:06:20;;;;;;;26.75;18.00;;;;;;;5.45;82.58;99903.30;1744281;82;20928;-74
2022/02/08 07:08:49;;;;;;;25.52;16.62;;;;;;;5.50;82.46;99901.77;1745336;82;21015;-74
2022/02/08 07:11:17;;;;;;;24.80;16.48;;;;;;;5.54;82.29;99908.03;1744882;82;20967;-76
2022/02/08 07:13:45;;;;;;;22.17;16.35;;;;;;;5.59;82.11;99909.93;1745215;81;20912;-73
2022/02/08 07:16:14;;;;;;;23.73;16.73;;;;;;;5.62;81.92;99910.23;1745049;81;21490;-75
2022/02/08 07:18:42;;;;;;;21.62;16.70;;;;;;;5.63;81.72;99908.03;1744850;81;21362;-74
2022/02/08 07:21:11;;;;;;;22.73;16.40;;;;;;;5.66;81.49;99913.53;1744702;82;20940;-73
2022/02/08 07:23:38;;;;;;;19.95;16.25;;;;;;;5.66;81.30;99916.13;1744355;81;20977;-75
2022/02/08 07:26:05;;;;;;;20.08;15.95;;;;;;;5.64;81.15;99912.30;1744518;80;20857;-73
2022/02/08 07:28:38;;;;;;;26.05;18.55;;;;;;;5.64;81.13;99914.90;1744550;80;21159;-71
2022/02/08 07:31:08;;;;;;;25.23;18.23;;;;;;;5.64;81.14;99912.30;1744616;81;21422;-75
2022/02/08 07:33:39;;;;;;;27.07;18.45;;;;;;;5.64;81.21;99913.59;1743112;81;20972;-73
2022/02/08 07:36:24;;;;;;;51.55;37.53;;;;;;;5.67;81.26;99913.89;1743039;80;20956;-75
2022/02/08 07:38:41;;;;;;;36.73;26.85;;;;;;;5.70;81.25;99914.59;1743731;81;21481;-74
2022/02/08 07:43:36;;;;;;;30.45;24.90;;;;;;;5.72;80.86;99920.56;1744178;81;20893;-76
2022/02/08 07:46:07;;;;;;;22.20;16.93;;;;;;;5.69;80.67;99925.93;1733797;82;20933;-78
2022/02/08 07:48:34;;;;;;;20.12;17.70;;;;;;;5.68;80.98;99928.60;1743970;81;20905;-76
2022/02/08 07:51:01;;;;;;;20.30;15.98;;;;;;;5.72;81.28;99933.56;1744604;82;20964;-78
2022/02/08 07:53:30;;;;;;;21.07;15.65;;;;;;;5.77;81.33;99939.36;1744527;82;21913;-80
2022/02/08 07:55:59;;;;;;;20.00;15.72;;;;;;;5.80;81.12;99939.66;1744764;82;20841;-81
2022/02/08 07:58:27;;;;;;;17.17;14.80;;;;;;;5.82;80.96;99939.13;1744064;80;20928;-79
2022/02/08 08:00:54;;;;;;;19.82;14.70;;;;;;;5.83;80.78;99936.09;1744776;81;21439;-79
2022/02/08 08:03:21;;;;;;;18.17;14.85;;;;;;;5.83;80.70;99934.79;1744574;80;20937;-80
2022/02/08 08:05:49;;;;;;;21.77;15.85;;;;;;;5.83;80.74;99943.43;1744327;81;20991;-80
2022/02/08 08:08:16;;;;;;;22.48;16.32;;;;;;;5.85;80.80;99939.42;1744569;82;20845;-78
2022/02/08 08:10:46;;;;;;;19.15;14.65;;;;;;;5.87;80.85;99944.96;1744378;80;21319;-78
2022/02/08 08:13:17;;;;;;;19.70;14.98;;;;;;;5.89;80.87;99948.33;1745247;81;20904;-79
2022/02/08 08:15:49;;;;;;;20.17;14.18;;;;;;;5.90;80.79;99953.06;1744627;82;20897;-75
2022/02/08 08:20:49;;;;;;;22.25;17.35;;;;;;;5.93;80.60;99958.09;1744313;82;21582;-73
2022/02/08 08:23:16;;;;;;;21.50;16.20;;;;;;;5.94;80.65;99954.59;1744469;82;20893;-75
2022/02/08 08:25:44;;;;;;;20.02;16.15;;;;;;;5.97;80.63;99956.59;1744480;82;20869;-75
2022/02/08 08:28:11;;;;;;;23.32;17.98;;;;;;;6.02;80.61;99961.55;1755747;80;21500;-75
2022/02/08 08:30:38;;;;;;;23.38;17.95;;;;;;;6.07;80.50;99957.41;1757690;80;21206;-77
2022/02/08 08:33:07;;;;;;;37.03;28.83;;;;;;;6.08;80.35;99965.14;1758101;80;20906;-76
2022/02/08 08:35:35;;;;;;;36.63;28.40;;;;;;;6.08;80.14;99966.45;1758546;80;20892;-75
2022/02/08 08:38:05;;;;;;;31.70;25.27;;;;;;;6.07;80.06;99969.98;1757854;81;21587;-76
2022/02/08 08:40:57;;;;;;;31.48;23.90;;;;;;;6.04;80.07;99966.22;1757805;81;20986;-76
2022/02/08 08:53:19;;;;;;;24.80;18.73;;;;;;;6.04;80.26;99974.03;1758184;81;21494;-74
2022/02/08 08:55:45;;;;;;;24.00;19.87;;;;;;;6.03;80.20;99976.27;1757907;80;21127;-74
2022/02/08 08:58:12;;;;;;;20.20;16.57;;;;;;;6.02;80.06;99977.17;1757733;81;20936;-70
2022/02/08 09:00:39;;;;;;;22.00;17.62;;;;;;;5.99;80.08;99973.44;1758352;81;20951;-67
2022/02/08 09:03:06;;;;;;;26.15;21.52;;;;;;;5.97;80.22;99970.07;1757901;81;20900;-72
2022/02/08 09:05:32;;;;;;;21.17;17.60;;;;;;;5.96;80.32;99972.30;1757890;80;21476;-66
2022/02/08 09:08:01;;;;;;;22.75;17.73;;;;;;;5.97;80.45;99976.58;1758171;80;21457;-67
2022/02/08 09:10:37;;;;;;;21.05;16.00;;;;;;;5.96;80.54;99978.34;1757927;81;21002;-67
2022/02/08 09:13:17;;;;;;;18.60;14.23;;;;;;;5.95;80.60;99977.11;1756305;81;20845;-68
2022/02/08 09:15:53;;;;;;;16.65;13.93;;;;;;;5.95;80.80;99978.41;1754724;81;20899;-68
2022/02/08 09:18:39;;;;;;;15.85;12.50;;;;;;;5.95;80.64;99981.02;1756285;81;20928;-76
2022/02/08 09:28:58;;;;;;;15.38;12.35;;;;;;;5.98;81.24;99983.45;1750444;81;20853;-68
2022/02/08 09:31:23;;;;;;;15.53;12.18;;;;;;;6.05;81.23;99977.03;1749974;82;21027;-69
2022/02/08 09:33:50;;;;;;;16.40;12.05;;;;;;;6.08;80.92;99979.93;1750553;80;21097;-69
2022/02/08 09:36:20;;;;;;;20.75;14.43;;;;;;;6.10;80.91;99975.02;1750312;80;20892;-69
2022/02/08 09:38:46;;;;;;;23.95;16.32;;;;;;;6.13;80.94;99975.31;1750358;82;21449;-69
2022/02/08 09:41:13;;;;;;;24.32;17.20;;;;;;;6.13;80.76;99978.76;1750013;82;20951;-69
2022/02/08 09:43:40;;;;;;;22.60;15.88;;;;;;;6.17;80.65;99984.19;1750379;80;20944;-69
2022/02/08 09:46:09;;;;;;;23.02;15.50;;;;;;;6.17;80.50;99979.45;1749949;82;21129;-70
2022/02/08 09:48:48;;;;;;;28.32;19.52;;;;;;;6.18;80.34;99988.49;1749965;80;21374;-72
2022/02/08 09:51:10;;;;;;;30.57;19.05;;;;;;;6.16;80.23;99985.59;1747725;80;20936;-70
2022/02/08 09:53:40;;;;;;;27.55;18.37;;;;;;;6.12;80.27;99977.09;1750484;82;20983;-70
2022/02/08 09:56:07;;;;;;;32.23;20.17;;;;;;;6.10;80.38;99984.13;1723193;82;21513;-70
2022/02/08 09:58:35;;;;;;;31.73;20.10;;;;;;;6.10;80.42;99986.73;1750059;80;21543;-71
2022/02/08 10:01:11;;;;;;;29.23;20.62;;;;;;;6.09;80.35;99986.80;1750204;82;20983;-70
2022/02/08 10:03:59;;;;;;;30.88;20.43;;;;;;;6.07;80.35;99986.91;1750056;80;20912;-69
2022/02/08 10:06:28;;;;;;;31.52;19.02;;;;;;;6.09;80.63;99990.71;1750026;82;21438;-69
2022/02/08 10:09:04;;;;;;;27.62;19.32;;;;;;;6.07;80.57;99986.05;1750062;80;20901;-72
2022/02/08 10:11:44;;;;;;;28.57;18.98;;;;;;;6.09;80.89;99985.06;1750404;80;21159;-71
2022/02/08 10:22:48;;;;;;;42.17;24.82;;;;;;;6.14;80.48;99981.76;1750337;82;20975;-71
2022/02/08 10:25:22;;;;;;;40.08;25.00;;;;;;;6.10;80.09;99984.13;1749903;82;21991;-72
2022/02/08 10:27:59;;;;;;;40.95;25.72;;;;;;;5.97;80.00;99981.31;1749042;81;20924;-71
2022/02/08 10:38:44;;;;;;;36.10;23.95;;;;;;;5.59;80.95;99987.13;1750532;82;21505;-70
2022/02/08 10:41:17;;;;;;;35.60;24.18;;;;;;;5.53;81.23;99992.63;1750037;82;21422;-72
2022/02/08 10:43:59;;;;;;;34.27;23.67;;;;;;;5.47;81.26;99993.78;1750632;82;21334;-69
2022/02/08 10:46:25;;;;;;;33.08;22.82;;;;;;;5.45;81.52;99993.02;1750167;82;20936;-69
2022/02/08 10:49:07;;;;;;;35.55;22.98;;;;;;;5.43;81.51;99996.14;1750084;82;21019;-70
2022/02/08 10:51:43;;;;;;;34.33;23.32;;;;;;;5.42;81.58;99997.04;1750061;82;21130;-70
2022/02/08 10:54:14;;;;;;;36.20;23.60;;;;;;;5.45;81.74;99996.91;1749946;82;21014;-69
2022/02/08 10:56:38;;;;;;;34.92;22.50;;;;;;;5.50;81.75;99997.98;1749089;80;20873;-69
2022/02/08 10:59:19;;;;;;;33.67;22.58;;;;;;;5.53;81.74;100000.42;1749561;82;20944;-69
2022/02/08 11:01:36;;;;;;;34.30;21.12;;;;;;;5.55;81.60;99999.42;1745273;80;20912;-69
2022/02/08 11:04:10;;;;;;;33.60;22.70;;;;;;;5.59;81.51;100004.86;1750174;80;21119;-69
2022/02/08 11:06:45;;;;;;;36.45;23.45;;;;;;;5.61;81.33;100006.09;1748962;82;21517;-69
2022/02/08 11:14:31;;;;;;;32.08;21.95;;;;;;;5.60;81.03;100009.17;1749827;82;20956;-67
2022/02/08 11:20:09;;;;;;;38.40;25.75;;;;;;;5.46;80.86;100014.65;1750039;82;20916;-69
2022/02/08 11:22:42;;;;;;;36.45;24.00;;;;;;;5.39;80.86;100017.53;1748714;82;20948;-68
2022/02/08 11:25:16;;;;;;;38.85;25.35;;;;;;;5.31;80.78;100017.05;1748261;82;20951;-68
2022/02/08 11:27:38;;;;;;;36.20;22.32;;;;;;;5.23;80.88;100028.77;1744715;81;21503;-69
2022/02/08 11:30:14;;;;;;;36.33;23.07;;;;;;;5.17;81.04;100027.28;1736033;82;21561;-68
2022/02/08 11:46:37;;;;;;;35.25;23.10;;;;;;;5.07;81.75;100045.07;1735965;82;20956;-69
2022/02/08 11:54:54;;;;;;;32.05;21.25;;;;;;;4.97;81.74;100045.10;1736418;82;20983;-68
2022/02/08 12:05:11;;;;;;;31.97;22.30;;;;;;;4.91;81.54;100060.53;1736296;82;20889;-66
2022/02/08 12:07:26;;;;;;;33.18;21.75;;;;;;;4.91;81.45;100059.23;1734248;82;20917;-68
2022/02/08 12:59:07;;;;;;;28.12;19.80;;;;;;;4.36;81.03;100136.96;1789454;80;20970;-71
2022/02/08 13:04:45;;;;;;;27.87;19.12;;;;;;;4.25;81.02;100152.14;1789510;80;20923;-69
2022/02/08 13:18:40;;;;;;;29.67;20.45;;;;;;;4.07;81.22;100172.73;1789332;80;20888;-68
2022/02/08 14:06:37;;;;;;;21.50;16.07;;;;;;;3.56;81.54;100233.52;1775323;80;20944;-71
2022/02/08 14:09:14;;;;;;;21.33;16.17;;;;;;;3.61;81.69;100238.06;1774369;80;21165;-69
2022/02/08 14:11:52;;;;;;;21.65;15.98;;;;;;;3.64;81.49;100248.31;1772988;80;20948;-70
2022/02/08 14:14:32;;;;;;;20.30;15.53;;;;;;;3.62;81.27;100244.92;1772428;80;20967;-70
2022/02/08 14:17:28;;;;;;;20.92;16.62;;;;;;;3.62;81.29;100249.27;1772885;80;21023;-70
2022/02/08 14:22:11;;;;;;;20.32;16.15;;;;;;;3.55;81.29;100248.66;1775418;80;21139;-68
2022/02/08 14:29:57;;;;;;;;;;;;;;;3.46;81.23;100259.36;1777719;80;20943;-70
2022/02/08 14:32:41;;;;;;;19.80;15.35;;;;;;;3.41;81.29;100254.81;1775348;80;20081;-70
2022/02/08 14:49:18;;;;;;;20.35;13.98;;;;;;;3.23;81.36;100288.70;1775207;80;21366;-70
2022/02/08 15:10:36;;;;;;;23.05;18.15;;;;;;;3.15;81.78;100325.69;1775275;80;20896;-68
2022/02/08 15:12:57;;;;;;;19.60;17.10;;;;;;;3.13;81.69;100328.32;1773460;80;21327;-68
2022/02/08 15:17:58;;;;;;;21.73;17.67;;;;;;;3.12;82.03;100333.12;1775081;80;20928;-67
2022/02/08 15:20:26;;;;;;;21.50;16.05;;;;;;;3.07;81.77;100332.44;1775249;80;20861;-69
2022/02/08 15:22:57;;;;;;;20.75;16.00;;;;;;;3.04;81.81;100337.24;1775125;80;20955;-70
2022/02/08 15:25:23;;;;;;;18.05;15.38;;;;;;;3.03;81.77;100336.86;1775131;80;21399;-69
2022/02/08 15:27:50;;;;;;;20.88;16.65;;;;;;;3.01;81.76;100341.70;1775213;80;21079;-68
2022/02/08 15:30:17;;;;;;;19.57;15.98;;;;;;;3.00;81.65;100342.58;1775119;80;20944;-69
2022/02/08 15:32:44;;;;;;;18.90;15.83;;;;;;;2.96;81.60;100336.67;1775055;80;20939;-68
2022/02/08 15:35:11;;;;;;;19.00;15.88;;;;;;;2.92;81.42;100344.60;1775185;80;20936;-68
2022/02/08 15:37:38;;;;;;;20.48;16.62;;;;;;;2.90;81.72;100336.41;1775322;80;20924;-66
2022/02/08 15:40:09;;;;;;;20.00;16.62;;;;;;;2.92;81.64;100342.84;1775384;80;21174;-68
2022/02/08 15:42:40;;;;;;;20.08;15.65;;;;;;;2.87;81.57;100341.70;1770362;80;21375;-69
2022/02/08 15:45:20;;;;;;;20.48;16.70;;;;;;;2.87;81.56;100347.34;1768078;80;21003;-68
2022/02/08 15:47:42;;;;;;;24.85;18.20;;;;;;;2.84;81.59;100356.03;1767082;81;20849;-70
2022/02/08 15:50:15;;;;;;;20.75;15.75;;;;;;;2.85;81.61;100363.38;1768187;81;21062;-67
2022/02/08 15:55:33;;;;;;;22.62;17.40;;;;;;;2.86;81.78;100372.37;1767953;81;20972;-68
2022/02/08 15:58:05;;;;;;;20.17;15.63;;;;;;;2.88;81.76;100368.44;1765616;81;20893;-69
2022/02/08 16:08:34;;;;;;;18.32;14.93;;;;;;;2.81;81.45;100378.61;1731296;81;21521;-68
2022/02/08 16:11:30;;;;;;;21.40;15.43;;;;;;;2.74;81.46;100374.53;1767596;80;20892;-68
2022/02/08 16:16:42;;;;;;;18.17;14.65;;;;;;;2.60;81.61;100377.09;1768569;81;20873;-68
2022/02/08 16:19:01;;;;;;;16.57;13.03;;;;;;;2.60;81.69;100378.39;1764334;81;20960;-67
2022/02/08 16:56:52;;;;;;;12.15;10.20;;;;;;;2.37;82.17;100408.83;1775981;80;20991;-70
2022/02/08 16:58:59;;;;;;;13.10;10.45;;;;;;;2.39;82.11;100417.41;1771907;80;21154;-69
2022/02/08 17:01:31;;;;;;;14.20;10.00;;;;;;;2.39;81.97;100427.75;1750847;80;21031;-69
2022/02/08 17:03:59;;;;;;;11.20;8.80;;;;;;;2.34;81.67;100429.63;1775028;80;20897;-67
2022/02/08 17:06:28;;;;;;;14.05;10.82;;;;;;;2.32;81.95;100433.16;1775124;80;20892;-68
2022/02/08 17:09:06;;;;;;;12.82;9.35;;;;;;;2.33;81.93;100435.69;1767281;80;21451;-69
2022/02/08 17:11:42;;;;;;;13.15;9.93;;;;;;;2.35;81.84;100428.73;1774706;80;21153;-70
2022/02/08 17:17:00;;;;;;;13.30;8.95;;;;;;;2.28;81.34;100424.63;1775319;80;20944;-70
2022/02/08 17:46:53;;;;;;;12.37;8.30;;;;;;;1.76;81.97;100432.56;1783993;80;21354;-69
2022/02/08 17:49:10;;;;;;;9.60;7.30;;;;;;;1.77;82.14;100428.62;1781207;80;20951;-69
2022/02/08 17:51:37;;;;;;;12.28;9.20;;;;;;;1.77;82.19;100432.50;1783822;80;21923;-73
2022/02/08 17:54:04;;;;;;;15.35;9.05;;;;;;;1.78;82.22;100438.52;1783524;80;20896;-70
2022/02/08 17:56:32;;;;;;;15.75;10.45;;;;;;;1.77;82.28;100436.38;1783838;80;20900;-70
2022/02/08 17:58:59;;;;;;;11.60;8.78;;;;;;;1.78;82.32;100435.92;1783457;80;21346;-69
2022/02/08 18:01:26;;;;;;;10.43;8.20;;;;;;;1.79;82.39;100438.93;1783581;80;20853;-70
2022/02/08 18:03:53;;;;;;;14.00;8.53;;;;;;;1.79;82.13;100441.52;1783294;80;21854;-69
2022/02/08 18:06:20;;;;;;;21.52;11.43;;;;;;;1.77;82.06;100447.17;1783522;80;20931;-70
2022/02/08 18:08:48;;;;;;;17.27;11.15;;;;;;;1.74;82.18;100444.23;1783586;80;20995;-74
2022/02/08 18:11:15;;;;;;;13.55;9.38;;;;;;;1.74;82.21;100452.43;1783452;80;20911;-71